sensor_id;sensor_type;location;lat;lon;timestamp;P1;durP1;ratioP1;P2;durP2;ratioP2
75504;SDS011;64085;54.974;73.410;2023-04-25T00:01:59;2.67;;;2.00;;
75504;SDS011;64085;54.974;73.410;2023-04-25T00:04:25;2.20;;;1.42;;
75504;SDS011;64085;54.974;73.410;2023-04-25T00:06:52;7.35;;;2.25;;
75504;SDS011;64085;54.974;73.410;2023-04-25T00:09:21;6.80;;;2.63;;
75504;SDS011;64085;54.974;73.410;2023-04-25T00:11:47;2.85;;;1.50;;
75504;SDS011;64085;54.974;73.410;2023-04-25T00:14:31;5.72;;;2.20;;
75504;SDS011;64085;54.974;73.410;2023-04-25T00:16:59;6.25;;;2.80;;
75504;SDS011;64085;54.974;73.410;2023-04-25T00:19:25;4.47;;;1.90;;
75504;SDS011;64085;54.974;73.410;2023-04-25T00:22:11;3.60;;;2.10;;
75504;SDS011;64085;54.974;73.410;2023-04-25T00:24:55;6.82;;;2.78;;
75504;SDS011;64085;54.974;73.410;2023-04-25T00:27:40;8.45;;;1.98;;
75504;SDS011;64085;54.974;73.410;2023-04-25T00:30:07;3.65;;;1.42;;
75504;SDS011;64085;54.974;73.410;2023-04-25T00:32:33;5.45;;;1.70;;
75504;SDS011;64085;54.974;73.410;2023-04-25T00:34:59;7.43;;;1.83;;
75504;SDS011;64085;54.974;73.410;2023-04-25T00:37:24;4.45;;;1.85;;
75504;SDS011;64085;54.974;73.410;2023-04-25T00:40:10;3.72;;;1.77;;
75504;SDS011;64085;54.974;73.410;2023-04-25T00:42:36;8.65;;;2.15;;
75504;SDS011;64085;54.974;73.410;2023-04-25T00:45:39;5.72;;;2.50;;
75504;SDS011;64085;54.974;73.410;2023-04-25T00:48:05;4.78;;;2.85;;
75504;SDS011;64085;54.974;73.410;2023-04-25T00:50:35;4.45;;;2.58;;
75504;SDS011;64085;54.974;73.410;2023-04-25T00:53:20;6.78;;;1.95;;
75504;SDS011;64085;54.974;73.410;2023-04-25T00:55:47;3.17;;;1.58;;
75504;SDS011;64085;54.974;73.410;2023-04-25T00:58:15;4.97;;;2.47;;
75504;SDS011;64085;54.974;73.410;2023-04-25T01:03:27;2.70;;;1.50;;
75504;SDS011;64085;54.974;73.410;2023-04-25T01:05:53;2.42;;;1.20;;
75504;SDS011;64085;54.974;73.410;2023-04-25T01:08:21;3.72;;;1.48;;
75504;SDS011;64085;54.974;73.410;2023-04-25T01:10:50;2.75;;;1.38;;
75504;SDS011;64085;54.974;73.410;2023-04-25T01:16:01;2.80;;;1.70;;
75504;SDS011;64085;54.974;73.410;2023-04-25T01:18:27;2.60;;;1.42;;
75504;SDS011;64085;54.974;73.410;2023-04-25T01:20:54;3.28;;;1.42;;
75504;SDS011;64085;54.974;73.410;2023-04-25T01:23:21;4.05;;;1.80;;
75504;SDS011;64085;54.974;73.410;2023-04-25T01:25:47;8.85;;;1.90;;
75504;SDS011;64085;54.974;73.410;2023-04-25T01:28:14;6.88;;;2.17;;
75504;SDS011;64085;54.974;73.410;2023-04-25T01:30:40;7.32;;;1.88;;
75504;SDS011;64085;54.974;73.410;2023-04-25T01:33:06;2.90;;;1.50;;
75504;SDS011;64085;54.974;73.410;2023-04-25T01:35:33;3.70;;;1.60;;
75504;SDS011;64085;54.974;73.410;2023-04-25T01:38:00;4.63;;;2.10;;
75504;SDS011;64085;54.974;73.410;2023-04-25T01:43:29;4.90;;;1.65;;
75504;SDS011;64085;54.974;73.410;2023-04-25T01:45:55;3.00;;;1.55;;
75504;SDS011;64085;54.974;73.410;2023-04-25T01:48:21;3.33;;;1.67;;
75504;SDS011;64085;54.974;73.410;2023-04-25T01:50:47;4.32;;;2.17;;
75504;SDS011;64085;54.974;73.410;2023-04-25T01:56:17;3.83;;;2.13;;
75504;SDS011;64085;54.974;73.410;2023-04-25T01:59:02;5.53;;;1.75;;
75504;SDS011;64085;54.974;73.410;2023-04-25T02:01:47;5.07;;;1.63;;
75504;SDS011;64085;54.974;73.410;2023-04-25T02:04:12;4.38;;;1.90;;
75504;SDS011;64085;54.974;73.410;2023-04-25T02:06:38;5.80;;;1.63;;
75504;SDS011;64085;54.974;73.410;2023-04-25T02:09:22;4.80;;;2.63;;
75504;SDS011;64085;54.974;73.410;2023-04-25T02:11:48;2.83;;;1.92;;
75504;SDS011;64085;54.974;73.410;2023-04-25T02:14:14;3.67;;;2.08;;
75504;SDS011;64085;54.974;73.410;2023-04-25T02:16:40;4.57;;;2.17;;
75504;SDS011;64085;54.974;73.410;2023-04-25T02:19:06;5.68;;;2.30;;
75504;SDS011;64085;54.974;73.410;2023-04-25T02:21:31;6.07;;;2.50;;
75504;SDS011;64085;54.974;73.410;2023-04-25T02:23:57;3.40;;;1.90;;
75504;SDS011;64085;54.974;73.410;2023-04-25T02:26:23;4.78;;;2.70;;
75504;SDS011;64085;54.974;73.410;2023-04-25T02:28:49;10.45;;;2.70;;
75504;SDS011;64085;54.974;73.410;2023-04-25T02:31:34;3.72;;;2.40;;
75504;SDS011;64085;54.974;73.410;2023-04-25T02:36:44;5.88;;;2.80;;
75504;SDS011;64085;54.974;73.410;2023-04-25T02:39:29;4.43;;;2.17;;
75504;SDS011;64085;54.974;73.410;2023-04-25T02:41:54;7.00;;;1.85;;
75504;SDS011;64085;54.974;73.410;2023-04-25T02:44:20;4.97;;;2.75;;
75504;SDS011;64085;54.974;73.410;2023-04-25T02:49:48;5.50;;;2.35;;
75504;SDS011;64085;54.974;73.410;2023-04-25T02:52:14;4.03;;;2.00;;
75504;SDS011;64085;54.974;73.410;2023-04-25T02:57:24;3.55;;;2.65;;
75504;SDS011;64085;54.974;73.410;2023-04-25T02:59:50;4.70;;;3.22;;
75504;SDS011;64085;54.974;73.410;2023-04-25T03:02:15;6.65;;;3.47;;
75504;SDS011;64085;54.974;73.410;2023-04-25T03:04:41;6.63;;;3.60;;
75504;SDS011;64085;54.974;73.410;2023-04-25T03:07:07;8.40;;;2.60;;
75504;SDS011;64085;54.974;73.410;2023-04-25T03:09:32;7.22;;;3.35;;
75504;SDS011;64085;54.974;73.410;2023-04-25T03:11:58;4.55;;;2.35;;
75504;SDS011;64085;54.974;73.410;2023-04-25T03:14:24;7.07;;;3.10;;
75504;SDS011;64085;54.974;73.410;2023-04-25T03:17:08;4.75;;;2.15;;
75504;SDS011;64085;54.974;73.410;2023-04-25T03:19:34;4.78;;;1.80;;
75504;SDS011;64085;54.974;73.410;2023-04-25T03:21:59;7.25;;;3.00;;
75504;SDS011;64085;54.974;73.410;2023-04-25T03:24:25;4.70;;;2.25;;
75504;SDS011;64085;54.974;73.410;2023-04-25T03:26:52;5.97;;;2.05;;
75504;SDS011;64085;54.974;73.410;2023-04-25T03:29:17;6.70;;;1.77;;
75504;SDS011;64085;54.974;73.410;2023-04-25T03:31:43;4.88;;;3.20;;
75504;SDS011;64085;54.974;73.410;2023-04-25T03:34:09;4.82;;;1.70;;
75504;SDS011;64085;54.974;73.410;2023-04-25T03:36:35;5.07;;;2.40;;
75504;SDS011;64085;54.974;73.410;2023-04-25T03:39:38;4.80;;;2.30;;
75504;SDS011;64085;54.974;73.410;2023-04-25T03:42:03;4.20;;;1.90;;
75504;SDS011;64085;54.974;73.410;2023-04-25T03:44:29;5.15;;;2.55;;
75504;SDS011;64085;54.974;73.410;2023-04-25T03:47:13;4.53;;;2.50;;
75504;SDS011;64085;54.974;73.410;2023-04-25T03:52:42;5.68;;;2.60;;
75504;SDS011;64085;54.974;73.410;2023-04-25T03:55:09;4.25;;;1.73;;
75504;SDS011;64085;54.974;73.410;2023-04-25T04:00:18;8.18;;;4.00;;
75504;SDS011;64085;54.974;73.410;2023-04-25T04:02:44;4.68;;;2.60;;
75504;SDS011;64085;54.974;73.410;2023-04-25T04:05:10;6.35;;;3.67;;
75504;SDS011;64085;54.974;73.410;2023-04-25T04:07:36;8.60;;;3.15;;
75504;SDS011;64085;54.974;73.410;2023-04-25T04:10:07;8.30;;;2.78;;
75504;SDS011;64085;54.974;73.410;2023-04-25T04:12:36;3.60;;;2.22;;
75504;SDS011;64085;54.974;73.410;2023-04-25T04:15:21;7.28;;;2.38;;
75504;SDS011;64085;54.974;73.410;2023-04-25T04:18:05;7.18;;;2.70;;
75504;SDS011;64085;54.974;73.410;2023-04-25T04:20:31;3.85;;;1.85;;
75504;SDS011;64085;54.974;73.410;2023-04-25T04:23:15;7.35;;;2.33;;
75504;SDS011;64085;54.974;73.410;2023-04-25T04:26:18;4.22;;;3.42;;
75504;SDS011;64085;54.974;73.410;2023-04-25T04:31:29;4.10;;;2.10;;
75504;SDS011;64085;54.974;73.410;2023-04-25T04:34:13;4.53;;;1.90;;
75504;SDS011;64085;54.974;73.410;2023-04-25T04:36:39;3.70;;;1.90;;
75504;SDS011;64085;54.974;73.410;2023-04-25T04:39:05;5.68;;;1.90;;
75504;SDS011;64085;54.974;73.410;2023-04-25T04:41:49;4.78;;;2.33;;
75504;SDS011;64085;54.974;73.410;2023-04-25T04:44:16;2.92;;;1.98;;
75504;SDS011;64085;54.974;73.410;2023-04-25T04:47:01;3.08;;;1.63;;
75504;SDS011;64085;54.974;73.410;2023-04-25T04:49:31;3.22;;;1.52;;
75504;SDS011;64085;54.974;73.410;2023-04-25T04:51:57;4.75;;;2.00;;
75504;SDS011;64085;54.974;73.410;2023-04-25T04:54:25;4.53;;;2.42;;
75504;SDS011;64085;54.974;73.410;2023-04-25T04:56:50;6.50;;;2.60;;
75504;SDS011;64085;54.974;73.410;2023-04-25T04:59:17;5.32;;;2.90;;
75504;SDS011;64085;54.974;73.410;2023-04-25T05:01:43;4.07;;;2.28;;
75504;SDS011;64085;54.974;73.410;2023-04-25T05:04:08;2.53;;;2.33;;
75504;SDS011;64085;54.974;73.410;2023-04-25T05:06:34;3.47;;;2.20;;
75504;SDS011;64085;54.974;73.410;2023-04-25T05:09:37;6.47;;;2.55;;
75504;SDS011;64085;54.974;73.410;2023-04-25T05:12:02;6.72;;;2.63;;
75504;SDS011;64085;54.974;73.410;2023-04-25T05:14:28;4.32;;;2.15;;
75504;SDS011;64085;54.974;73.410;2023-04-25T05:16:54;6.78;;;2.22;;
75504;SDS011;64085;54.974;73.410;2023-04-25T05:19:20;4.13;;;1.75;;
75504;SDS011;64085;54.974;73.410;2023-04-25T05:21:46;4.18;;;1.90;;
75504;SDS011;64085;54.974;73.410;2023-04-25T05:24:11;6.57;;;2.05;;
75504;SDS011;64085;54.974;73.410;2023-04-25T05:26:56;5.80;;;2.08;;
75504;SDS011;64085;54.974;73.410;2023-04-25T05:29:39;4.93;;;2.05;;
75504;SDS011;64085;54.974;73.410;2023-04-25T05:32:05;5.35;;;1.98;;
75504;SDS011;64085;54.974;73.410;2023-04-25T05:34:31;7.30;;;1.98;;
75504;SDS011;64085;54.974;73.410;2023-04-25T05:36:56;5.85;;;2.17;;
75504;SDS011;64085;54.974;73.410;2023-04-25T05:39:22;7.30;;;2.17;;
75504;SDS011;64085;54.974;73.410;2023-04-25T05:41:48;4.18;;;2.00;;
75504;SDS011;64085;54.974;73.410;2023-04-25T05:44:13;3.15;;;1.98;;
75504;SDS011;64085;54.974;73.410;2023-04-25T05:46:40;6.80;;;2.03;;
75504;SDS011;64085;54.974;73.410;2023-04-25T05:49:25;5.32;;;2.13;;
75504;SDS011;64085;54.974;73.410;2023-04-25T05:51:50;4.28;;;3.28;;
75504;SDS011;64085;54.974;73.410;2023-04-25T05:54:16;5.65;;;1.90;;
75504;SDS011;64085;54.974;73.410;2023-04-25T05:57:00;8.73;;;2.17;;
75504;SDS011;64085;54.974;73.410;2023-04-25T05:59:27;3.65;;;1.67;;
75504;SDS011;64085;54.974;73.410;2023-04-25T06:01:53;10.23;;;2.47;;
75504;SDS011;64085;54.974;73.410;2023-04-25T06:04:37;7.30;;;2.60;;
75504;SDS011;64085;54.974;73.410;2023-04-25T06:07:02;3.15;;;1.95;;
75504;SDS011;64085;54.974;73.410;2023-04-25T06:09:28;3.47;;;1.85;;
75504;SDS011;64085;54.974;73.410;2023-04-25T06:11:54;9.05;;;2.95;;
75504;SDS011;64085;54.974;73.410;2023-04-25T06:14:19;4.78;;;1.90;;
75504;SDS011;64085;54.974;73.410;2023-04-25T06:16:45;6.43;;;1.98;;
75504;SDS011;64085;54.974;73.410;2023-04-25T06:19:29;9.77;;;1.90;;
75504;SDS011;64085;54.974;73.410;2023-04-25T06:21:54;7.53;;;2.83;;
75504;SDS011;64085;54.974;73.410;2023-04-25T06:24:20;3.67;;;2.03;;
75504;SDS011;64085;54.974;73.410;2023-04-25T06:26:46;7.72;;;2.05;;
75504;SDS011;64085;54.974;73.410;2023-04-25T06:29:12;8.02;;;2.22;;
75504;SDS011;64085;54.974;73.410;2023-04-25T06:31:38;6.15;;;2.30;;
75504;SDS011;64085;54.974;73.410;2023-04-25T06:34:22;7.38;;;2.10;;
75504;SDS011;64085;54.974;73.410;2023-04-25T06:36:48;6.43;;;1.95;;
75504;SDS011;64085;54.974;73.410;2023-04-25T06:39:13;5.85;;;1.38;;
75504;SDS011;64085;54.974;73.410;2023-04-25T06:41:39;4.70;;;1.65;;
75504;SDS011;64085;54.974;73.410;2023-04-25T06:49:53;8.68;;;1.50;;
75504;SDS011;64085;54.974;73.410;2023-04-25T06:55:03;3.45;;;1.55;;
75504;SDS011;64085;54.974;73.410;2023-04-25T06:57:30;5.95;;;1.40;;
75504;SDS011;64085;54.974;73.410;2023-04-25T06:59:56;9.18;;;2.33;;
75504;SDS011;64085;54.974;73.410;2023-04-25T07:02:21;4.38;;;1.60;;
75504;SDS011;64085;54.974;73.410;2023-04-25T07:07:50;2.60;;;1.70;;
75504;SDS011;64085;54.974;73.410;2023-04-25T07:10:15;3.85;;;1.50;;
75504;SDS011;64085;54.974;73.410;2023-04-25T07:12:41;2.40;;;1.33;;
75504;SDS011;64085;54.974;73.410;2023-04-25T07:15:07;6.47;;;1.77;;
75504;SDS011;64085;54.974;73.410;2023-04-25T07:17:51;2.75;;;1.63;;
75504;SDS011;64085;54.974;73.410;2023-04-25T07:20:17;2.38;;;1.40;;
75504;SDS011;64085;54.974;73.410;2023-04-25T07:22:42;3.58;;;1.95;;
75504;SDS011;64085;54.974;73.410;2023-04-25T07:25:09;2.95;;;1.70;;
75504;SDS011;64085;54.974;73.410;2023-04-25T07:27:35;2.55;;;1.63;;
75504;SDS011;64085;54.974;73.410;2023-04-25T07:30:19;3.78;;;1.65;;
75504;SDS011;64085;54.974;73.410;2023-04-25T07:32:45;3.58;;;1.48;;
75504;SDS011;64085;54.974;73.410;2023-04-25T07:38:13;5.65;;;1.38;;
75504;SDS011;64085;54.974;73.410;2023-04-25T07:40:39;8.43;;;1.50;;
75504;SDS011;64085;54.974;73.410;2023-04-25T07:43:05;1.58;;;1.25;;
75504;SDS011;64085;54.974;73.410;2023-04-25T07:45:49;1.88;;;1.40;;
75504;SDS011;64085;54.974;73.410;2023-04-25T07:48:18;3.22;;;1.27;;
75504;SDS011;64085;54.974;73.410;2023-04-25T07:50:44;3.60;;;1.55;;
75504;SDS011;64085;54.974;73.410;2023-04-25T07:53:10;4.03;;;1.40;;
75504;SDS011;64085;54.974;73.410;2023-04-25T07:58:39;2.53;;;1.85;;
75504;SDS011;64085;54.974;73.410;2023-04-25T08:01:06;4.70;;;1.50;;
75504;SDS011;64085;54.974;73.410;2023-04-25T08:03:32;3.53;;;1.23;;
75504;SDS011;64085;54.974;73.410;2023-04-25T08:06:16;3.75;;;1.10;;
75504;SDS011;64085;54.974;73.410;2023-04-25T08:09:19;4.80;;;1.40;;
75504;SDS011;64085;54.974;73.410;2023-04-25T08:11:45;3.13;;;1.33;;
75504;SDS011;64085;54.974;73.410;2023-04-25T08:14:12;5.45;;;1.10;;
75504;SDS011;64085;54.974;73.410;2023-04-25T08:16:38;3.55;;;1.88;;
75504;SDS011;64085;54.974;73.410;2023-04-25T08:19:22;2.92;;;1.40;;
75504;SDS011;64085;54.974;73.410;2023-04-25T08:21:48;2.88;;;1.42;;
75504;SDS011;64085;54.974;73.410;2023-04-25T08:24:32;3.10;;;1.60;;
75504;SDS011;64085;54.974;73.410;2023-04-25T08:26:58;3.83;;;1.30;;
75504;SDS011;64085;54.974;73.410;2023-04-25T08:29:24;6.03;;;1.70;;
75504;SDS011;64085;54.974;73.410;2023-04-25T08:31:50;5.32;;;1.40;;
75504;SDS011;64085;54.974;73.410;2023-04-25T08:34:18;5.13;;;1.52;;
75504;SDS011;64085;54.974;73.410;2023-04-25T08:36:45;1.23;;;1.13;;
75504;SDS011;64085;54.974;73.410;2023-04-25T08:39:10;3.20;;;1.70;;
75504;SDS011;64085;54.974;73.410;2023-04-25T08:44:39;5.00;;;1.30;;
75504;SDS011;64085;54.974;73.410;2023-04-25T08:47:05;3.33;;;1.40;;
75504;SDS011;64085;54.974;73.410;2023-04-25T08:49:34;6.82;;;1.50;;
75504;SDS011;64085;54.974;73.410;2023-04-25T08:52:02;4.10;;;1.50;;
75504;SDS011;64085;54.974;73.410;2023-04-25T08:54:31;4.03;;;1.45;;
75504;SDS011;64085;54.974;73.410;2023-04-25T08:57:00;2.40;;;1.13;;
75504;SDS011;64085;54.974;73.410;2023-04-25T08:59:30;3.00;;;1.25;;
75504;SDS011;64085;54.974;73.410;2023-04-25T09:01:56;4.93;;;1.63;;
75504;SDS011;64085;54.974;73.410;2023-04-25T09:07:10;6.80;;;1.88;;
75504;SDS011;64085;54.974;73.410;2023-04-25T09:09:36;2.10;;;1.50;;
75504;SDS011;64085;54.974;73.410;2023-04-25T09:12:02;2.75;;;1.35;;
75504;SDS011;64085;54.974;73.410;2023-04-25T09:14:27;6.72;;;1.88;;
75504;SDS011;64085;54.974;73.410;2023-04-25T09:16:57;4.03;;;2.38;;
75504;SDS011;64085;54.974;73.410;2023-04-25T09:19:27;4.28;;;2.55;;
75504;SDS011;64085;54.974;73.410;2023-04-25T09:24:41;4.35;;;1.90;;
75504;SDS011;64085;54.974;73.410;2023-04-25T09:27:27;3.05;;;1.63;;
75504;SDS011;64085;54.974;73.410;2023-04-25T09:30:11;6.50;;;1.80;;
75504;SDS011;64085;54.974;73.410;2023-04-25T09:32:42;5.00;;;2.40;;
75504;SDS011;64085;54.974;73.410;2023-04-25T09:35:09;6.90;;;4.10;;
75504;SDS011;64085;54.974;73.410;2023-04-25T09:37:36;9.32;;;4.85;;
75504;SDS011;64085;54.974;73.410;2023-04-25T09:40:04;5.88;;;4.32;;
75504;SDS011;64085;54.974;73.410;2023-04-25T09:42:32;6.95;;;4.50;;
75504;SDS011;64085;54.974;73.410;2023-04-25T09:45:00;3.85;;;2.90;;
75504;SDS011;64085;54.974;73.410;2023-04-25T09:47:29;6.97;;;3.17;;
75504;SDS011;64085;54.974;73.410;2023-04-25T09:49:54;5.68;;;2.72;;
75504;SDS011;64085;54.974;73.410;2023-04-25T09:52:21;5.63;;;2.90;;
75504;SDS011;64085;54.974;73.410;2023-04-25T09:54:48;6.43;;;3.70;;
75504;SDS011;64085;54.974;73.410;2023-04-25T09:59:52;4.60;;;3.30;;
75504;SDS011;64085;54.974;73.410;2023-04-25T10:02:19;6.03;;;2.40;;
75504;SDS011;64085;54.974;73.410;2023-04-25T10:07:32;4.68;;;3.33;;
75504;SDS011;64085;54.974;73.410;2023-04-25T10:10:01;3.75;;;1.92;;
75504;SDS011;64085;54.974;73.410;2023-04-25T10:12:50;2.67;;;1.88;;
75504;SDS011;64085;54.974;73.410;2023-04-25T10:18:19;5.65;;;3.25;;
75504;SDS011;64085;54.974;73.410;2023-04-25T10:20:46;3.03;;;2.25;;
75504;SDS011;64085;54.974;73.410;2023-04-25T10:23:15;9.13;;;2.92;;
75504;SDS011;64085;54.974;73.410;2023-04-25T10:26:00;3.58;;;2.20;;
75504;SDS011;64085;54.974;73.410;2023-04-25T10:28:26;3.78;;;2.67;;
75504;SDS011;64085;54.974;73.410;2023-04-25T10:31:00;4.13;;;2.78;;
75504;SDS011;64085;54.974;73.410;2023-04-25T10:36:19;6.03;;;2.92;;
75504;SDS011;64085;54.974;73.410;2023-04-25T10:38:47;3.70;;;2.13;;
75504;SDS011;64085;54.974;73.410;2023-04-25T10:41:17;3.95;;;2.03;;
75504;SDS011;64085;54.974;73.410;2023-04-25T10:43:47;3.42;;;1.50;;
75504;SDS011;64085;54.974;73.410;2023-04-25T10:46:19;2.20;;;1.13;;
75504;SDS011;64085;54.974;73.410;2023-04-25T10:49:05;4.78;;;1.75;;
75504;SDS011;64085;54.974;73.410;2023-04-25T10:51:34;4.13;;;1.73;;
75504;SDS011;64085;54.974;73.410;2023-04-25T10:54:05;2.28;;;1.50;;
75504;SDS011;64085;54.974;73.410;2023-04-25T10:59:08;3.70;;;1.20;;
75504;SDS011;64085;54.974;73.410;2023-04-25T11:01:36;5.45;;;1.67;;
75504;SDS011;64085;54.974;73.410;2023-04-25T11:04:04;2.80;;;1.83;;
75504;SDS011;64085;54.974;73.410;2023-04-25T11:08:59;4.15;;;1.95;;
75504;SDS011;64085;54.974;73.410;2023-04-25T11:11:26;3.35;;;1.67;;
75504;SDS011;64085;54.974;73.410;2023-04-25T11:13:53;4.60;;;1.90;;
75504;SDS011;64085;54.974;73.410;2023-04-25T11:16:19;2.67;;;1.30;;
75504;SDS011;64085;54.974;73.410;2023-04-25T11:18:45;6.93;;;1.92;;
75504;SDS011;64085;54.974;73.410;2023-04-25T11:21:11;4.30;;;1.42;;
75504;SDS011;64085;54.974;73.410;2023-04-25T11:23:56;2.70;;;1.42;;
75504;SDS011;64085;54.974;73.410;2023-04-25T11:26:23;4.30;;;1.50;;
75504;SDS011;64085;54.974;73.410;2023-04-25T11:28:50;3.83;;;1.40;;
75504;SDS011;64085;54.974;73.410;2023-04-25T11:31:34;3.28;;;1.25;;
75504;SDS011;64085;54.974;73.410;2023-04-25T11:34:00;7.63;;;1.27;;
75504;SDS011;64085;54.974;73.410;2023-04-25T11:36:26;3.88;;;1.50;;
75504;SDS011;64085;54.974;73.410;2023-04-25T11:38:53;3.78;;;1.20;;
75504;SDS011;64085;54.974;73.410;2023-04-25T11:41:19;1.95;;;1.13;;
75504;SDS011;64085;54.974;73.410;2023-04-25T11:43:47;2.58;;;1.00;;
75504;SDS011;64085;54.974;73.410;2023-04-25T11:46:13;3.95;;;1.10;;
75504;SDS011;64085;54.974;73.410;2023-04-25T11:51:24;2.03;;;0.93;;
75504;SDS011;64085;54.974;73.410;2023-04-25T11:53:50;6.35;;;3.05;;
75504;SDS011;64085;54.974;73.410;2023-04-25T11:56:16;2.88;;;1.38;;
75504;SDS011;64085;54.974;73.410;2023-04-25T11:59:04;5.43;;;1.30;;
75504;SDS011;64085;54.974;73.410;2023-04-25T12:01:37;3.40;;;1.85;;
75504;SDS011;64085;54.974;73.410;2023-04-25T12:06:41;6.65;;;2.80;;
75504;SDS011;64085;54.974;73.410;2023-04-25T12:11:57;4.20;;;2.85;;
75504;SDS011;64085;54.974;73.410;2023-04-25T12:14:24;4.78;;;2.42;;
75504;SDS011;64085;54.974;73.410;2023-04-25T12:16:55;6.22;;;2.42;;
75504;SDS011;64085;54.974;73.410;2023-04-25T12:19:22;4.35;;;2.00;;
75504;SDS011;64085;54.974;73.410;2023-04-25T12:21:49;6.40;;;2.92;;
75504;SDS011;64085;54.974;73.410;2023-04-25T12:24:34;3.47;;;2.15;;
75504;SDS011;64085;54.974;73.410;2023-04-25T12:27:01;8.63;;;2.63;;
75504;SDS011;64085;54.974;73.410;2023-04-25T12:29:55;4.05;;;2.35;;
75504;SDS011;64085;54.974;73.410;2023-04-25T12:32:23;3.05;;;2.25;;
75504;SDS011;64085;54.974;73.410;2023-04-25T12:34:50;4.45;;;2.60;;
75504;SDS011;64085;54.974;73.410;2023-04-25T12:37:15;5.07;;;3.15;;
75504;SDS011;64085;54.974;73.410;2023-04-25T12:39:41;6.07;;;2.90;;
75504;SDS011;64085;54.974;73.410;2023-04-25T12:42:25;5.05;;;3.00;;
75504;SDS011;64085;54.974;73.410;2023-04-25T12:44:51;5.50;;;2.97;;
75504;SDS011;64085;54.974;73.410;2023-04-25T12:47:35;6.38;;;2.42;;
75504;SDS011;64085;54.974;73.410;2023-04-25T12:50:01;5.28;;;1.75;;
75504;SDS011;64085;54.974;73.410;2023-04-25T12:52:26;2.67;;;1.83;;
75504;SDS011;64085;54.974;73.410;2023-04-25T12:54:52;5.22;;;2.38;;
75504;SDS011;64085;54.974;73.410;2023-04-25T12:57:18;3.88;;;1.58;;
75504;SDS011;64085;54.974;73.410;2023-04-25T12:59:44;3.35;;;1.83;;
75504;SDS011;64085;54.974;73.410;2023-04-25T13:02:10;2.95;;;1.67;;
75504;SDS011;64085;54.974;73.410;2023-04-25T13:04:36;2.15;;;1.63;;
75504;SDS011;64085;54.974;73.410;2023-04-25T13:07:01;4.57;;;2.03;;
75504;SDS011;64085;54.974;73.410;2023-04-25T13:09:46;5.40;;;2.33;;
75504;SDS011;64085;54.974;73.410;2023-04-25T13:12:11;5.78;;;2.47;;
75504;SDS011;64085;54.974;73.410;2023-04-25T13:14:55;5.45;;;2.70;;
75504;SDS011;64085;54.974;73.410;2023-04-25T13:17:21;3.97;;;1.63;;
75504;SDS011;64085;54.974;73.410;2023-04-25T13:23:08;5.80;;;1.60;;
75504;SDS011;64085;54.974;73.410;2023-04-25T13:25:34;4.50;;;2.25;;
75504;SDS011;64085;54.974;73.410;2023-04-25T13:27:59;4.00;;;2.53;;
75504;SDS011;64085;54.974;73.410;2023-04-25T13:36:31;5.45;;;1.80;;
75504;SDS011;64085;54.974;73.410;2023-04-25T13:38:56;6.63;;;2.25;;
75504;SDS011;64085;54.974;73.410;2023-04-25T13:44:44;5.70;;;1.80;;
75504;SDS011;64085;54.974;73.410;2023-04-25T13:47:09;6.13;;;1.92;;
75504;SDS011;64085;54.974;73.410;2023-04-25T13:49:35;4.75;;;3.15;;
75504;SDS011;64085;54.974;73.410;2023-04-25T13:52:01;5.30;;;1.85;;
75504;SDS011;64085;54.974;73.410;2023-04-25T13:54:26;6.70;;;2.50;;
75504;SDS011;64085;54.974;73.410;2023-04-25T13:56:52;8.27;;;2.05;;
75504;SDS011;64085;54.974;73.410;2023-04-25T13:59:20;6.72;;;2.58;;
75504;SDS011;64085;54.974;73.410;2023-04-25T14:01:46;9.48;;;2.33;;
75504;SDS011;64085;54.974;73.410;2023-04-25T14:04:11;13.88;;;2.60;;
75504;SDS011;64085;54.974;73.410;2023-04-25T14:06:37;10.65;;;2.63;;
75504;SDS011;64085;54.974;73.410;2023-04-25T14:09:03;11.40;;;2.85;;
75504;SDS011;64085;54.974;73.410;2023-04-25T14:11:29;10.25;;;3.08;;
75504;SDS011;64085;54.974;73.410;2023-04-25T14:14:13;3.92;;;2.20;;
75504;SDS011;64085;54.974;73.410;2023-04-25T14:16:57;8.70;;;2.42;;
75504;SDS011;64085;54.974;73.410;2023-04-25T14:19:41;5.55;;;2.50;;
75504;SDS011;64085;54.974;73.410;2023-04-25T14:25:13;8.32;;;3.05;;
75504;SDS011;64085;54.974;73.410;2023-04-25T14:27:39;10.13;;;3.30;;
75504;SDS011;64085;54.974;73.410;2023-04-25T14:30:23;9.65;;;4.13;;
75504;SDS011;64085;54.974;73.410;2023-04-25T14:35:34;11.23;;;4.88;;
75504;SDS011;64085;54.974;73.410;2023-04-25T14:38:19;9.80;;;4.05;;
75504;SDS011;64085;54.974;73.410;2023-04-25T14:43:32;13.13;;;4.35;;
75504;SDS011;64085;54.974;73.410;2023-04-25T14:45:58;11.35;;;3.83;;
75504;SDS011;64085;54.974;73.410;2023-04-25T14:48:24;11.70;;;4.80;;
75504;SDS011;64085;54.974;73.410;2023-04-25T14:50:50;15.50;;;5.28;;
75504;SDS011;64085;54.974;73.410;2023-04-25T14:58:45;23.02;;;8.90;;
75504;SDS011;64085;54.974;73.410;2023-04-25T15:01:11;20.63;;;9.63;;
75504;SDS011;64085;54.974;73.410;2023-04-25T15:03:38;18.63;;;9.57;;
75504;SDS011;64085;54.974;73.410;2023-04-25T15:06:08;22.40;;;10.10;;
75504;SDS011;64085;54.974;73.410;2023-04-25T15:08:34;27.77;;;10.60;;
75504;SDS011;64085;54.974;73.410;2023-04-25T15:13:45;18.92;;;8.45;;
75504;SDS011;64085;54.974;73.410;2023-04-25T15:16:11;16.08;;;9.32;;
75504;SDS011;64085;54.974;73.410;2023-04-25T15:18:36;25.42;;;10.55;;
75504;SDS011;64085;54.974;73.410;2023-04-25T15:21:02;22.33;;;9.68;;
75504;SDS011;64085;54.974;73.410;2023-04-25T15:23:28;24.55;;;11.27;;
75504;SDS011;64085;54.974;73.410;2023-04-25T15:25:54;21.65;;;11.48;;
75504;SDS011;64085;54.974;73.410;2023-04-25T15:28:19;27.25;;;12.65;;
75504;SDS011;64085;54.974;73.410;2023-04-25T15:30:46;28.23;;;12.60;;
75504;SDS011;64085;54.974;73.410;2023-04-25T15:33:30;26.40;;;11.00;;
75504;SDS011;64085;54.974;73.410;2023-04-25T15:35:57;24.55;;;12.43;;
75504;SDS011;64085;54.974;73.410;2023-04-25T15:38:23;20.60;;;11.98;;
75504;SDS011;64085;54.974;73.410;2023-04-25T15:41:07;27.42;;;11.88;;
75504;SDS011;64085;54.974;73.410;2023-04-25T15:51:27;41.03;;;17.40;;
75504;SDS011;64085;54.974;73.410;2023-04-25T15:53:53;40.55;;;22.42;;
75504;SDS011;64085;54.974;73.410;2023-04-25T15:56:18;41.58;;;21.58;;
75504;SDS011;64085;54.974;73.410;2023-04-25T15:58:44;45.83;;;23.60;;
75504;SDS011;64085;54.974;73.410;2023-04-25T16:01:28;43.97;;;21.52;;
75504;SDS011;64085;54.974;73.410;2023-04-25T16:06:59;41.85;;;22.83;;
75504;SDS011;64085;54.974;73.410;2023-04-25T16:09:44;48.22;;;23.77;;
75504;SDS011;64085;54.974;73.410;2023-04-25T16:12:10;42.72;;;25.05;;
75504;SDS011;64085;54.974;73.410;2023-04-25T16:14:36;44.90;;;21.95;;
75504;SDS011;64085;54.974;73.410;2023-04-25T16:17:20;45.50;;;23.67;;
75504;SDS011;64085;54.974;73.410;2023-04-25T16:19:46;39.22;;;21.02;;
75504;SDS011;64085;54.974;73.410;2023-04-25T16:22:12;35.50;;;21.98;;
75504;SDS011;64085;54.974;73.410;2023-04-25T16:24:56;34.05;;;19.67;;
75504;SDS011;64085;54.974;73.410;2023-04-25T16:30:06;33.28;;;18.63;;
75504;SDS011;64085;54.974;73.410;2023-04-25T16:32:34;30.05;;;19.50;;
75504;SDS011;64085;54.974;73.410;2023-04-25T16:35:00;27.42;;;15.70;;
75504;SDS011;64085;54.974;73.410;2023-04-25T16:37:26;27.35;;;16.38;;
75504;SDS011;64085;54.974;73.410;2023-04-25T16:39:52;28.77;;;15.32;;
75504;SDS011;64085;54.974;73.410;2023-04-25T16:42:17;31.25;;;17.80;;
75504;SDS011;64085;54.974;73.410;2023-04-25T16:44:46;30.63;;;15.18;;
75504;SDS011;64085;54.974;73.410;2023-04-25T16:47:12;24.05;;;14.35;;
75504;SDS011;64085;54.974;73.410;2023-04-25T16:49:37;22.20;;;12.88;;